Metar
Geneve

LSGG 291050Z 21012KT 9999 FEW017 SCT035 BKN050 14/09 Q1025 NOSIG

Payerne

LSMP 291050Z AUTO 23013KT 190V250 9999NDV FEW022 SCT028 BKN035 13/09 Q1024 RMK

Eplatures

LSGC 051550Z 13006KT 080V170 CAVOK 15/M05 Q1019

Berne

LSZB 291050Z 28007KT 240V320 9999 FEW040 SCT080 BKN090 13/08 Q1024 NOSIG

Granges

LSZG 291050Z 24011KT 9999 VCSH SCT009 BKN013 11/10 Q1024 REDZ NOSIG

Sion

LSGS 291050Z VRB02KT 9999 FEW010 BKN070 12/09 Q1025

Annecy

LFLP 291100Z AUTO VRB03KT 9999 SCT043 SCT049 OVC056 13/10 Q1026 TEMPO RA

Taf
Geneve

TAF LSGG 290825Z 2909/3015 22010KT 9999 FEW030 BKN040 TX15/2914Z TN07/3005Z TX16/3014Z BECMG 2909/2912 VRB03KT BECMG 2922/3002 FEW050 PROB30 TEMPO 3005/3007 3000 BCFG

Eplatures

TAF AMD TAF AMD LSGC 270646Z 2706/2718 VRB03KT 9000 OVC015 BECMG 2712/2715 9999 SCT020

Berne

TAF AMD TAF AMD LSZB 222054Z 2220/2224 CNL

Granges

TAF AMD LSZG 222054Z 2220/2224 CNL

Sion

TAF AMD LSGS 242023Z 2415/2424 CNL

Annecy

TAF LFLP 290800Z 2909/3009 VRB03KT 9999 BKN060 TEMPO 2909/2912 RA